createdAt,value
2018-01-22T00:01:32.489Z,94.06
2018-01-22T00:03:59.940Z,94.21
2018-01-22T00:06:27.394Z,94.18
2018-01-22T00:08:54.854Z,93.98
2018-01-22T00:11:22.288Z,94.24
2018-01-22T00:13:49.772Z,94.97
2018-01-22T00:16:17.212Z,95.02
2018-01-22T00:18:44.645Z,95.25
2018-01-22T00:21:12.145Z,95.08
2018-01-22T00:23:39.594Z,95.14
2018-01-22T00:26:07.317Z,95.45
2018-01-22T00:28:34.776Z,96.07
2018-01-22T00:31:02.217Z,96.47
2018-01-22T00:33:29.673Z,96.38
2018-01-22T00:35:57.109Z,96.51
2018-01-22T00:38:24.709Z,96.12
2018-01-22T00:40:52.169Z,96.39
2018-01-22T00:43:19.629Z,96.68
2018-01-22T00:45:47.123Z,96.77
2018-01-22T00:48:14.565Z,96.95
2018-01-22T00:50:42.173Z,97.03
2018-01-22T00:53:09.689Z,97.19
2018-01-22T00:55:37.131Z,97.42
2018-01-22T00:58:04.594Z,97.37
2018-01-22T01:00:32.029Z,97.00
2018-01-22T01:02:59.676Z,97.06
2018-01-22T01:05:27.126Z,97.04
2018-01-22T01:07:54.572Z,97.10
2018-01-22T01:10:22.029Z,97.29
2018-01-22T01:12:49.636Z,97.51
2018-01-22T01:15:17.266Z,97.69
2018-01-22T01:17:44.709Z,97.31
2018-01-22T01:20:12.137Z,96.88
2018-01-22T01:22:39.589Z,97.25
2018-01-22T01:25:07.021Z,97.27
2018-01-22T01:27:34.877Z,97.49
2018-01-22T01:30:02.325Z,97.44
2018-01-22T01:32:29.786Z,97.37
2018-01-22T01:34:57.244Z,97.53
2018-01-22T01:37:24.697Z,97.37
2018-01-22T01:39:52.343Z,97.32
2018-01-22T01:42:19.781Z,96.91
2018-01-22T01:44:47.213Z,96.84
2018-01-22T01:47:14.674Z,96.84
2018-01-22T01:49:42.141Z,96.58
2018-01-22T01:52:09.724Z,96.23
2018-01-22T01:54:37.160Z,96.46
2018-01-22T01:57:04.594Z,97.23
2018-01-22T01:59:32.050Z,96.74
2018-01-22T02:01:59.509Z,96.77
2018-01-22T02:04:27.317Z,97.28
2018-01-22T02:06:54.744Z,96.82
2018-01-22T02:09:22.184Z,97.16
2018-01-22T02:11:49.637Z,97.31
2018-01-22T02:14:17.069Z,97.27
2018-01-22T02:16:44.701Z,97.74
2018-01-22T02:19:12.253Z,97.72
2018-01-22T02:21:39.688Z,97.69
2018-01-22T02:24:07.144Z,97.55
2018-01-22T02:26:34.579Z,97.09
2018-01-22T02:29:02.207Z,97.26
2018-01-22T02:31:29.661Z,96.92
2018-01-22T02:33:57.137Z,97.03
2018-01-22T02:36:24.597Z,97.34
2018-01-22T02:38:52.058Z,97.32
2018-01-22T02:41:19.513Z,97.11
2018-01-22T02:43:46.949Z,97.21
2018-01-22T02:46:14.405Z,97.27
2018-01-22T02:48:41.865Z,97.07
2018-01-22T02:51:09.367Z,96.61
2018-01-22T02:53:37.161Z,96.64
2018-01-22T02:56:04.595Z,96.32
2018-01-22T02:58:32.030Z,96.41
2018-01-22T03:00:59.482Z,96.68
2018-01-22T03:03:26.918Z,96.77
2018-01-22T03:05:54.381Z,97.06
2018-01-22T03:08:21.808Z,97.52
2018-01-22T03:10:49.252Z,97.83
2018-01-22T03:13:16.713Z,97.82
2018-01-22T03:15:44.147Z,97.68
2018-01-22T03:18:11.857Z,97.87
2018-01-22T03:20:39.294Z,97.86
2018-01-22T03:23:06.753Z,97.66
2018-01-22T03:25:34.213Z,97.67
2018-01-22T03:28:01.645Z,97.33
2018-01-22T03:30:29.114Z,96.49
2018-01-22T03:32:56.649Z,96.50
2018-01-22T03:35:24.088Z,96.36
2018-01-22T03:37:51.538Z,97.02
2018-01-22T03:40:18.984Z,96.85
2018-01-22T03:42:46.605Z,96.79
2018-01-22T03:45:14.044Z,97.18
2018-01-22T03:47:41.481Z,97.50
2018-01-22T03:50:08.961Z,97.73
2018-01-22T03:52:36.389Z,97.93
2018-01-22T03:55:03.851Z,97.85
2018-01-22T03:57:31.297Z,98.00
2018-01-22T03:59:58.760Z,98.06
2018-01-22T04:02:26.577Z,98.01
2018-01-22T04:04:54.021Z,97.84
2018-01-22T04:07:21.874Z,97.47
2018-01-22T04:09:49.304Z,98.13
2018-01-22T04:12:16.733Z,98.14
2018-01-22T04:14:44.185Z,98.25
2018-01-22T04:17:11.620Z,97.98
2018-01-22T04:19:39.267Z,98.06
2018-01-22T04:22:06.696Z,98.37
2018-01-22T04:24:34.140Z,97.58
2018-01-22T04:27:01.670Z,97.39
2018-01-22T04:29:29.104Z,97.58
2018-01-22T04:31:56.564Z,97.64
2018-01-22T04:34:24.001Z,97.29
2018-01-22T04:36:51.434Z,97.57
2018-01-22T04:39:18.979Z,97.70
2018-01-22T04:41:46.408Z,97.47
2018-01-22T04:44:13.892Z,97.49
2018-01-22T04:46:41.544Z,97.66
2018-01-22T04:49:08.981Z,97.74
2018-01-22T04:51:36.439Z,97.68
2018-01-22T04:54:03.868Z,97.66
2018-01-22T04:56:31.325Z,97.72
2018-01-22T04:58:58.784Z,97.50
2018-01-22T05:01:26.212Z,97.30
2018-01-22T05:03:53.758Z,97.12
2018-01-22T05:06:21.189Z,97.34
2018-01-22T05:08:48.833Z,97.37
2018-01-22T05:11:16.281Z,97.26
2018-01-22T05:13:43.721Z,97.13
2018-01-22T05:16:11.180Z,97.47
2018-01-22T05:18:38.613Z,97.70
2018-01-22T05:21:06.397Z,97.85
2018-01-22T05:23:33.854Z,97.96
2018-01-22T05:26:01.299Z,98.24
2018-01-22T05:28:28.753Z,98.62
2018-01-22T05:30:56.185Z,98.23
2018-01-22T05:33:23.664Z,97.98
2018-01-22T05:35:51.097Z,98.34
2018-01-22T05:38:18.548Z,97.96
2018-01-22T05:40:46.024Z,98.17
2018-01-22T05:43:13.453Z,97.93
2018-01-22T05:45:40.920Z,97.86
2018-01-22T05:48:08.352Z,98.09
2018-01-22T05:50:35.795Z,97.83
2018-01-22T05:53:03.259Z,97.71
2018-01-22T05:55:30.705Z,97.90
2018-01-22T05:57:58.448Z,97.12
2018-01-22T06:00:25.891Z,96.73
2018-01-22T06:02:53.321Z,96.83
2018-01-22T06:05:20.771Z,96.74
2018-01-22T06:07:48.221Z,97.04
2018-01-22T06:10:15.709Z,96.28
2018-01-22T06:12:43.149Z,95.93
2018-01-22T06:15:10.601Z,96.00
2018-01-22T06:17:38.069Z,95.88
2018-01-22T06:20:05.511Z,95.97
2018-01-22T06:22:32.993Z,95.99
2018-01-22T06:25:00.433Z,95.56
2018-01-22T06:27:27.889Z,95.78
2018-01-22T06:29:55.364Z,96.13
2018-01-22T06:32:22.800Z,96.12
2018-01-22T06:34:50.277Z,96.31
2018-01-22T06:37:17.737Z,95.99
2018-01-22T06:39:45.166Z,96.25
2018-01-22T06:42:12.618Z,96.90
2018-01-22T06:44:40.057Z,97.03
2018-01-22T06:47:07.509Z,96.65
2018-01-22T06:49:34.944Z,96.64
2018-01-22T06:52:02.486Z,96.30
2018-01-22T06:54:29.942Z,96.33
2018-01-22T06:56:57.383Z,96.20
2018-01-22T06:59:24.845Z,96.35
2018-01-22T07:01:52.276Z,96.20
2018-01-22T07:04:19.716Z,95.97
2018-01-22T07:06:47.196Z,95.96
2018-01-22T07:09:14.628Z,95.80
2018-01-22T07:11:42.125Z,96.09
2018-01-22T07:14:09.569Z,95.86
2018-01-22T07:16:37.062Z,95.38
2018-01-22T07:19:04.728Z,95.41
2018-01-22T07:21:32.156Z,95.49
2018-01-22T07:23:59.835Z,95.71
2018-01-22T07:26:27.272Z,96.26
2018-01-22T07:28:54.710Z,96.11
2018-01-22T07:31:22.166Z,96.00
2018-01-22T07:33:49.642Z,96.09
2018-01-22T07:36:17.142Z,95.97
2018-01-22T07:38:44.580Z,95.67
2018-01-22T07:41:12.024Z,96.02
2018-01-22T07:43:39.493Z,95.74
2018-01-22T07:46:06.922Z,95.65
2018-01-22T07:48:34.453Z,95.79
2018-01-22T07:51:01.915Z,95.39
2018-01-22T07:53:29.348Z,95.35
2018-01-22T07:55:56.807Z,95.22
2018-01-22T07:58:24.248Z,94.98
2018-01-22T08:00:51.729Z,94.68
2018-01-22T08:03:19.195Z,94.41
2018-01-22T08:05:46.758Z,95.05
2018-01-22T08:08:14.237Z,95.11
2018-01-22T08:10:41.673Z,94.57
2018-01-22T08:13:09.137Z,94.39
2018-01-22T08:15:36.574Z,94.89
2018-01-22T08:18:04.286Z,95.56
2018-01-22T08:20:31.724Z,95.50
2018-01-22T08:22:59.172Z,94.79
2018-01-22T08:25:26.657Z,93.58
2018-01-22T08:27:54.097Z,92.81
2018-01-22T08:30:21.592Z,92.79
2018-01-22T08:32:49.046Z,93.48
2018-01-22T08:35:16.482Z,94.05
2018-01-22T08:37:43.977Z,94.53
2018-01-22T08:40:11.409Z,94.92
2018-01-22T08:42:38.867Z,94.97
2018-01-22T08:45:06.301Z,93.14
2018-01-22T08:47:33.732Z,94.16
2018-01-22T08:50:01.206Z,93.37
2018-01-22T08:52:28.751Z,92.92
2018-01-22T08:54:56.245Z,93.12
2018-01-22T08:57:23.686Z,93.31
2018-01-22T08:59:51.162Z,93.56
2018-01-22T09:02:18.617Z,93.67
2018-01-22T09:04:46.084Z,94.26
2018-01-22T09:07:13.553Z,93.92
2018-01-22T09:09:41.037Z,94.34
2018-01-22T09:12:08.476Z,94.16
2018-01-22T09:14:35.908Z,93.92
2018-01-22T09:17:03.376Z,94.12
2018-01-22T09:19:30.815Z,94.50
2018-01-22T09:21:58.248Z,92.15
2018-01-22T09:24:25.714Z,92.01
2018-01-22T09:26:53.176Z,93.19
2018-01-22T09:29:20.596Z,93.59
2018-01-22T09:31:48.060Z,93.30
2018-01-22T09:34:15.494Z,93.25
2018-01-22T09:36:42.941Z,92.84
2018-01-22T09:39:10.394Z,92.47
2018-01-22T09:41:37.826Z,93.16
2018-01-22T09:44:05.270Z,93.20
2018-01-22T09:46:32.768Z,92.84
2018-01-22T09:49:00.290Z,92.48
2018-01-22T09:51:27.685Z,91.65
2018-01-22T09:53:55.146Z,92.07
2018-01-22T09:56:22.577Z,92.46
2018-01-22T09:58:50.013Z,91.89
2018-01-22T10:01:17.485Z,92.65
2018-01-22T10:03:44.938Z,92.21
2018-01-22T10:06:12.373Z,92.74
2018-01-22T10:08:39.861Z,92.13
2018-01-22T10:11:07.297Z,91.26
2018-01-22T10:13:34.733Z,92.14
2018-01-22T10:16:02.402Z,93.11
2018-01-22T10:18:29.832Z,90.36
2018-01-22T10:20:57.277Z,89.26
2018-01-22T10:23:24.757Z,91.41
2018-01-22T10:25:52.203Z,90.34
2018-01-22T10:28:19.638Z,90.83
2018-01-22T10:30:47.109Z,91.97
2018-01-22T10:33:14.552Z,90.27
2018-01-22T10:35:41.981Z,91.00
2018-01-22T10:38:09.452Z,90.53
2018-01-22T10:40:36.918Z,90.10
2018-01-22T10:43:04.349Z,89.23
2018-01-22T10:45:32.038Z,89.96
2018-01-22T10:47:59.474Z,89.82
2018-01-22T10:50:26.904Z,88.25
2018-01-22T10:52:54.563Z,90.88
2018-01-22T10:55:21.996Z,88.63
2018-01-22T10:57:49.725Z,87.24
2018-01-22T11:00:17.360Z,89.21
2018-01-22T11:02:44.826Z,91.14
2018-01-22T11:05:12.264Z,90.89
2018-01-22T11:07:39.900Z,89.21
2018-01-22T11:10:07.329Z,89.61
2018-01-22T11:12:34.760Z,89.11
2018-01-22T11:15:02.384Z,88.10
2018-01-22T11:17:29.823Z,86.46
2018-01-22T11:19:57.264Z,88.04
2018-01-22T11:22:24.726Z,89.78
2018-01-22T11:24:52.173Z,88.67
2018-01-22T11:27:19.611Z,87.85
2018-01-22T11:29:47.225Z,88.69
2018-01-22T11:32:14.793Z,89.36
2018-01-22T11:34:42.226Z,89.64
2018-01-22T11:37:09.696Z,89.53
2018-01-22T11:39:37.133Z,89.31
2018-01-22T11:42:04.569Z,88.73
2018-01-22T11:44:32.028Z,88.39
2018-01-22T11:46:59.462Z,88.58
2018-01-22T11:49:26.948Z,87.08
2018-01-22T11:51:54.387Z,87.43
2018-01-22T11:54:21.825Z,88.36
2018-01-22T11:56:49.284Z,88.27
2018-01-22T11:59:16.725Z,87.92
2018-01-22T12:01:44.362Z,88.53
2018-01-22T12:04:11.819Z,85.90
2018-01-22T12:06:39.317Z,88.09
2018-01-22T12:09:06.824Z,86.87
2018-01-22T12:11:34.286Z,86.81
2018-01-22T12:14:01.790Z,87.57
2018-01-22T12:16:29.795Z,87.56
2018-01-22T12:18:57.301Z,88.89
2018-01-22T12:21:24.752Z,89.05
2018-01-22T12:23:52.187Z,88.97
2018-01-22T12:26:19.747Z,88.63
2018-01-22T12:28:47.181Z,87.96
2018-01-22T12:31:14.614Z,89.56
2018-01-22T12:33:42.080Z,89.19
2018-01-22T12:36:09.525Z,88.54
2018-01-22T12:38:36.988Z,89.64
2018-01-22T12:41:04.429Z,88.79
2018-01-22T12:43:31.872Z,90.34
2018-01-22T12:45:59.331Z,90.88
2018-01-22T12:48:26.942Z,90.80
2018-01-22T12:50:54.417Z,90.87
2018-01-22T12:53:21.862Z,91.05
2018-01-22T12:55:49.305Z,90.03
2018-01-22T12:58:16.802Z,89.81
2018-01-22T13:00:44.245Z,88.96
2018-01-22T13:03:11.936Z,89.88
2018-01-22T13:05:39.397Z,91.70
2018-01-22T13:08:06.841Z,92.78
2018-01-22T13:10:34.335Z,92.08
2018-01-22T13:13:01.840Z,93.10
2018-01-22T13:15:29.417Z,92.80
2018-01-22T13:17:56.853Z,92.93
2018-01-22T13:20:24.283Z,93.32
2018-01-22T13:22:51.750Z,92.70
2018-01-22T13:25:19.213Z,92.89
2018-01-22T13:27:46.700Z,93.46
2018-01-22T13:30:14.165Z,94.17
2018-01-22T13:32:41.614Z,94.70
2018-01-22T13:35:09.080Z,94.48
2018-01-22T13:37:36.523Z,92.93
2018-01-22T13:40:09.577Z,92.38
2018-01-22T13:42:37.015Z,91.98
2018-01-22T13:45:04.572Z,92.92
2018-01-22T13:47:32.113Z,92.96
2018-01-22T13:49:59.553Z,93.30
2018-01-22T13:52:27.334Z,92.97
2018-01-22T13:54:55.053Z,93.63
2018-01-22T13:57:22.496Z,92.46
2018-01-22T13:59:49.967Z,91.84
2018-01-22T14:02:17.409Z,92.68
2018-01-22T14:04:44.867Z,92.45
2018-01-22T14:07:12.329Z,90.61
2018-01-22T14:09:39.760Z,92.01
2018-01-22T14:12:07.222Z,92.50
2018-01-22T14:14:34.652Z,92.71
2018-01-22T14:17:02.413Z,92.87
2018-01-22T14:19:29.855Z,93.03
2018-01-22T14:21:57.308Z,93.27
2018-01-22T14:24:24.783Z,92.95
2018-01-22T14:26:52.245Z,92.25
2018-01-22T14:29:19.701Z,90.28
2018-01-22T14:31:47.147Z,89.45
2018-01-22T14:34:14.610Z,89.18
2018-01-22T14:36:42.164Z,89.86
2018-01-22T14:39:09.598Z,91.58
2018-01-22T14:41:37.361Z,90.77
2018-01-22T14:44:04.853Z,90.88
2018-01-22T14:46:32.297Z,91.58
2018-01-22T14:48:59.757Z,90.73
2018-01-22T14:51:27.189Z,90.24
2018-01-22T14:53:54.917Z,90.99
2018-01-22T14:56:22.362Z,90.31
2018-01-22T14:58:49.797Z,89.09
2018-01-22T15:01:17.249Z,91.00
2018-01-22T15:03:44.681Z,91.35
2018-01-22T15:06:12.507Z,91.02
2018-01-22T15:08:39.985Z,92.14
2018-01-22T15:11:07.578Z,91.91
2018-01-22T15:13:35.036Z,91.83
2018-01-22T15:16:02.476Z,92.16
2018-01-22T15:18:29.966Z,92.35
2018-01-22T15:20:57.406Z,92.50
2018-01-22T15:23:24.840Z,92.82
2018-01-22T15:25:52.309Z,92.42
2018-01-22T15:28:19.753Z,92.81
2018-01-22T15:30:47.377Z,93.04
2018-01-22T15:33:14.825Z,92.98
2018-01-22T15:35:42.259Z,93.63
2018-01-22T15:38:09.761Z,94.56
2018-01-22T15:40:37.205Z,94.90
2018-01-22T15:43:04.681Z,94.56
2018-01-22T15:45:32.137Z,94.19
2018-01-22T15:47:59.628Z,93.95
2018-01-22T15:50:27.138Z,93.89
2018-01-22T15:52:54.910Z,94.59
2018-01-22T15:55:22.421Z,94.25
2018-01-22T15:57:49.981Z,94.31
2018-01-22T16:00:17.878Z,94.33
2018-01-22T16:02:45.399Z,94.52
2018-01-22T16:05:12.861Z,94.36
2018-01-22T16:07:40.490Z,93.95
2018-01-22T16:10:08.019Z,94.09
2018-01-22T16:12:35.529Z,93.80
2018-01-22T16:15:03.208Z,93.65
2018-01-22T16:17:31.103Z,94.23
2018-01-22T16:19:58.903Z,94.29
2018-01-22T16:22:26.354Z,93.67
2018-01-22T16:24:54.488Z,93.15
2018-01-22T16:27:21.942Z,93.41
2018-01-22T16:29:49.466Z,93.82
2018-01-22T16:32:16.933Z,93.65
2018-01-22T16:34:44.377Z,94.21
2018-01-22T16:37:11.809Z,93.23
2018-01-22T16:39:39.301Z,93.84
2018-01-22T16:42:06.805Z,93.87
2018-01-22T16:44:34.521Z,94.39
2018-01-22T16:47:07.708Z,94.64
2018-01-22T16:49:35.416Z,94.70
2018-01-22T16:52:02.852Z,94.61
2018-01-22T16:54:30.309Z,94.38
2018-01-22T16:56:57.781Z,94.57
2018-01-22T16:59:25.241Z,94.27
2018-01-22T17:01:52.712Z,94.28
2018-01-22T17:04:20.218Z,94.23
2018-01-22T17:06:47.665Z,94.25
2018-01-22T17:09:15.140Z,94.18
2018-01-22T17:11:42.584Z,94.15
2018-01-22T17:14:10.292Z,94.29
2018-01-22T17:16:37.739Z,94.20
2018-01-22T17:19:05.304Z,93.61
2018-01-22T17:21:32.772Z,93.79
2018-01-22T17:24:00.221Z,94.68
2018-01-22T17:26:27.701Z,95.17
2018-01-22T17:28:55.189Z,95.17
2018-01-22T17:31:22.638Z,94.95
2018-01-22T17:33:50.117Z,94.83
2018-01-22T17:36:17.557Z,94.87
2018-01-22T17:38:45.154Z,94.56
2018-01-22T17:41:12.593Z,94.75
2018-01-22T17:43:40.041Z,94.70
2018-01-22T17:46:07.501Z,94.86
2018-01-22T17:48:34.971Z,95.03
2018-01-22T17:51:02.773Z,94.71
2018-01-22T17:53:30.221Z,94.36
2018-01-22T17:55:57.668Z,94.47
2018-01-22T17:58:25.145Z,94.60
2018-01-22T18:00:52.594Z,94.63
2018-01-22T18:03:20.207Z,94.76
2018-01-22T18:05:47.652Z,94.77
2018-01-22T18:08:15.096Z,94.77
2018-01-22T18:10:42.808Z,94.50
2018-01-22T18:13:10.253Z,94.75
2018-01-22T18:15:37.952Z,94.73
2018-01-22T18:18:05.402Z,95.02
2018-01-22T18:20:32.880Z,94.45
2018-01-22T18:23:00.345Z,94.90
2018-01-22T18:25:27.789Z,95.17
2018-01-22T18:27:55.337Z,95.59
2018-01-22T18:30:22.785Z,95.57
2018-01-22T18:32:50.217Z,95.64
2018-01-22T18:35:17.685Z,95.66
2018-01-22T18:37:45.129Z,95.54
2018-01-22T18:40:12.794Z,95.54
2018-01-22T18:42:40.247Z,95.50
2018-01-22T18:45:07.693Z,95.40
2018-01-22T18:47:35.217Z,95.28
2018-01-22T18:50:02.672Z,95.09
2018-01-22T18:52:30.181Z,94.86
2018-01-22T18:54:57.633Z,94.99
2018-01-22T18:57:25.120Z,94.90
2018-01-22T18:59:52.601Z,95.23
2018-01-22T19:02:20.054Z,94.90
2018-01-22T19:04:47.773Z,95.22
2018-01-22T19:07:15.225Z,94.48
2018-01-22T19:09:42.705Z,94.56
2018-01-22T19:12:10.173Z,94.59
2018-01-22T19:14:37.617Z,94.22
2018-01-22T19:17:05.277Z,93.18
2018-01-22T19:19:32.824Z,93.69
2018-01-22T19:22:00.273Z,93.60
2018-01-22T19:24:27.754Z,93.29
2018-01-22T19:26:55.217Z,93.27
2018-01-22T19:29:22.685Z,92.22
2018-01-22T19:31:51.053Z,91.76
2018-01-22T19:34:18.704Z,91.46
2018-01-22T19:36:46.149Z,91.82
2018-01-22T19:39:13.616Z,92.58
2018-01-22T19:41:41.111Z,92.99
2018-01-22T19:44:08.574Z,93.30
2018-01-22T19:46:37.093Z,93.44
2018-01-22T19:49:04.578Z,92.96
2018-01-22T19:51:32.036Z,93.61
2018-01-22T19:53:59.496Z,93.56
2018-01-22T19:56:26.942Z,93.65
2018-01-22T19:58:54.415Z,93.54
2018-01-22T20:01:21.879Z,93.62
2018-01-22T20:03:49.529Z,93.65
2018-01-22T20:06:16.981Z,93.84
2018-01-22T20:08:44.668Z,94.10
2018-01-22T20:11:12.165Z,93.92
2018-01-22T20:13:39.606Z,92.87
2018-01-22T20:16:08.052Z,92.56
2018-01-22T20:18:35.493Z,92.43
2018-01-22T20:21:02.965Z,92.75
2018-01-22T20:23:30.429Z,91.44
2018-01-22T20:25:57.887Z,91.44
2018-01-22T20:28:25.377Z,92.11
2018-01-22T20:30:52.821Z,92.93
2018-01-22T20:33:20.274Z,92.65
2018-01-22T20:35:47.733Z,91.22
2018-01-22T20:38:15.211Z,90.97
2018-01-22T20:40:43.866Z,91.90
2018-01-22T20:43:11.308Z,91.71
2018-01-22T20:45:39.987Z,91.49
2018-01-22T20:48:07.494Z,91.67
2018-01-22T20:50:34.951Z,92.14
2018-01-22T20:53:02.389Z,91.70
2018-01-22T20:55:29.848Z,91.98
2018-01-22T20:57:58.229Z,91.63
2018-01-22T21:00:25.666Z,90.40
2018-01-22T21:02:53.139Z,86.84
2018-01-22T21:05:20.578Z,85.58
2018-01-22T21:07:48.021Z,84.37
2018-01-22T21:10:15.545Z,82.65
2018-01-22T21:12:42.989Z,82.40
2018-01-22T21:15:10.444Z,82.14
2018-01-22T21:17:37.921Z,81.57
2018-01-22T21:20:05.369Z,81.88
2018-01-22T21:22:32.816Z,81.55
2018-01-22T21:25:00.310Z,81.57
2018-01-22T21:27:27.793Z,80.86
2018-01-22T21:29:55.236Z,81.03
2018-01-22T21:32:22.717Z,80.76
2018-01-22T21:34:50.172Z,80.97
2018-01-22T21:37:17.625Z,80.21
2018-01-22T21:39:45.201Z,80.20
2018-01-22T21:42:12.647Z,80.44
2018-01-22T21:44:40.093Z,80.84
2018-01-22T21:47:07.552Z,80.39
2018-01-22T21:49:34.989Z,79.66
2018-01-22T21:52:02.429Z,79.44
2018-01-22T21:54:29.896Z,79.69
2018-01-22T21:56:57.340Z,79.39
2018-01-22T21:59:24.781Z,79.73
2018-01-22T22:01:52.268Z,79.36
2018-01-22T22:04:19.704Z,78.73
2018-01-22T22:06:47.141Z,78.55
2018-01-22T22:09:14.613Z,79.16
2018-01-22T22:11:42.079Z,78.91
2018-01-22T22:14:09.538Z,79.14
2018-01-22T22:16:37.108Z,78.52
2018-01-22T22:19:04.545Z,78.60
2018-01-22T22:21:31.985Z,78.73
2018-01-22T22:23:59.441Z,78.06
2018-01-22T22:26:26.881Z,78.68
2018-01-22T22:28:54.336Z,79.69
2018-01-22T22:31:21.802Z,78.93
2018-01-22T22:33:49.304Z,78.80
2018-01-22T22:36:16.752Z,77.83
2018-01-22T22:38:44.214Z,78.53
2018-01-22T22:41:11.683Z,78.21
2018-01-22T22:43:39.164Z,77.88
2018-01-22T22:46:06.684Z,78.12
2018-01-22T22:48:34.129Z,77.58
2018-01-22T22:51:01.564Z,78.34
2018-01-22T22:53:29.094Z,78.29
2018-01-22T22:55:56.572Z,78.23
2018-01-22T22:58:24.046Z,78.70
2018-01-22T23:00:51.506Z,79.75
2018-01-22T23:03:19.120Z,81.48
2018-01-22T23:05:46.557Z,79.96
2018-01-22T23:08:14.017Z,80.00
2018-01-22T23:10:41.505Z,80.42
2018-01-22T23:13:08.941Z,81.54
2018-01-22T23:15:36.400Z,80.61
2018-01-22T23:18:03.850Z,80.29
2018-01-22T23:20:31.357Z,80.37
2018-01-22T23:22:59.252Z,81.00
2018-01-22T23:25:26.744Z,81.20
2018-01-22T23:27:54.257Z,80.99
2018-01-22T23:30:21.753Z,80.72
2018-01-22T23:32:49.207Z,80.55
2018-01-22T23:35:17.054Z,80.26
2018-01-22T23:37:44.506Z,79.31
2018-01-22T23:40:11.949Z,79.67
2018-01-22T23:42:39.410Z,79.55
2018-01-22T23:45:06.855Z,79.89
2018-01-22T23:47:34.468Z,79.89
2018-01-22T23:50:01.903Z,80.00
2018-01-22T23:52:29.339Z,80.23
2018-01-22T23:54:56.959Z,80.31
2018-01-22T23:57:24.408Z,79.69
2018-01-22T23:59:52.049Z,80.00
